createdAt,value
2023-04-27T00:01:51.801Z,8.27
2023-04-27T00:07:55.250Z,8.93
2023-04-27T00:13:58.704Z,13.73
2023-04-27T00:20:05.604Z,10.07
2023-04-27T00:26:09.002Z,8.70
2023-04-27T00:32:12.655Z,8.98
2023-04-27T00:38:17.398Z,9.82
2023-04-27T00:44:24.908Z,9.32
2023-04-27T00:50:29.955Z,10.15
2023-04-27T00:56:34.888Z,11.32
2023-04-27T01:02:38.956Z,12.27
2023-04-27T01:08:42.676Z,12.95
2023-04-27T01:14:47.413Z,10.02
2023-04-27T01:20:50.849Z,10.23
2023-04-27T01:26:55.774Z,12.80
2023-04-27T01:32:59.238Z,16.63
2023-04-27T01:39:04.153Z,16.02
2023-04-27T01:45:10.153Z,13.10
2023-04-27T01:51:13.785Z,11.10
2023-04-27T01:57:17.690Z,9.85
2023-04-27T02:03:22.816Z,9.88
2023-04-27T02:09:26.544Z,9.18
2023-04-27T02:15:30.134Z,11.30
2023-04-27T02:21:34.970Z,10.18
2023-04-27T02:27:39.123Z,11.50
2023-04-27T02:33:43.287Z,11.30
2023-04-27T02:39:48.132Z,12.73
2023-04-27T02:45:51.798Z,15.68
2023-04-27T02:51:55.496Z,13.35
2023-04-27T02:58:00.618Z,11.10
2023-04-27T03:04:04.349Z,18.98
2023-04-27T03:10:08.343Z,14.10
2023-04-27T03:16:13.328Z,14.05
2023-04-27T03:22:16.799Z,23.08
2023-04-27T03:28:20.198Z,18.20
2023-04-27T03:34:27.725Z,14.05
2023-04-27T03:40:31.490Z,14.25
2023-04-27T03:46:35.189Z,15.48
2023-04-27T03:52:40.044Z,15.80
2023-04-27T03:58:43.447Z,16.08
2023-04-27T04:04:47.238Z,16.35
2023-04-27T04:10:52.181Z,11.05
2023-04-27T04:16:55.636Z,13.32
2023-04-27T04:22:59.091Z,11.77
2023-04-27T04:29:04.026Z,11.80
2023-04-27T04:35:07.901Z,14.23
2023-04-27T04:41:11.768Z,14.75
2023-04-27T04:47:17.782Z,11.73
2023-04-27T04:53:21.267Z,15.63
2023-04-27T04:59:24.905Z,15.88
2023-04-27T05:05:29.681Z,10.27
2023-04-27T05:11:33.088Z,17.27
2023-04-27T05:17:36.618Z,14.77
2023-04-27T05:23:41.444Z,16.23
2023-04-27T05:29:44.865Z,14.23
2023-04-27T05:35:48.317Z,14.93
2023-04-27T05:41:54.034Z,16.42
2023-04-27T05:47:57.492Z,14.30
2023-04-27T05:54:02.217Z,12.15
2023-04-27T06:00:10.862Z,13.43
2023-04-27T06:06:14.262Z,9.10
2023-04-27T06:12:17.642Z,11.82
2023-04-27T06:18:22.621Z,12.90
2023-04-27T06:24:26.194Z,11.57
2023-04-27T06:30:29.567Z,12.68
2023-04-27T06:36:34.538Z,14.02
2023-04-27T06:42:37.990Z,13.52
2023-04-27T06:48:41.484Z,14.85
2023-04-27T06:54:46.498Z,14.90
2023-04-27T07:00:49.890Z,16.48
2023-04-27T07:06:53.319Z,17.38
2023-04-27T07:12:58.351Z,14.13
2023-04-27T07:19:01.887Z,15.00
2023-04-27T07:25:06.090Z,14.18
2023-04-27T07:31:10.902Z,13.77
2023-04-27T07:37:15.994Z,13.18
2023-04-27T07:43:20.276Z,18.05
2023-04-27T07:49:25.131Z,13.38
2023-04-27T07:55:28.785Z,13.75
2023-04-27T08:01:32.180Z,16.73
2023-04-27T08:07:42.542Z,13.38
2023-04-27T08:13:48.268Z,14.85
2023-04-27T08:19:52.021Z,16.50
2023-04-27T08:25:57.565Z,14.73
2023-04-27T08:32:01.577Z,14.63
2023-04-27T08:38:05.023Z,14.27
2023-04-27T08:44:10.004Z,16.42
2023-04-27T08:50:13.825Z,16.60
2023-04-27T08:56:17.586Z,14.23
2023-04-27T09:02:23.037Z,17.92
2023-04-27T09:08:26.510Z,16.83
2023-04-27T09:14:30.881Z,13.98
2023-04-27T09:20:44.326Z,15.20
2023-04-27T09:26:51.439Z,14.00
2023-04-27T09:32:56.164Z,14.32
2023-04-27T09:39:04.701Z,12.27
2023-04-27T09:45:09.206Z,12.82
2023-04-27T09:51:12.813Z,12.57
2023-04-27T09:57:21.627Z,11.68
2023-04-27T10:03:30.248Z,11.60
2023-04-27T10:09:37.756Z,13.68
2023-04-27T10:15:42.899Z,12.85
2023-04-27T10:22:03.522Z,15.13
2023-04-27T10:28:08.302Z,12.57
2023-04-27T10:34:21.222Z,11.98
2023-04-27T10:40:34.878Z,12.55
2023-04-27T10:46:38.278Z,11.70
2023-04-27T10:52:46.793Z,12.02
2023-04-27T10:58:50.473Z,10.32
2023-04-27T11:04:54.006Z,8.63
2023-04-27T11:10:58.800Z,10.73
2023-04-27T11:17:02.697Z,9.27
2023-04-27T11:23:06.287Z,10.57
2023-04-27T11:29:14.092Z,8.23
2023-04-27T11:35:18.509Z,9.85
2023-04-27T11:41:23.326Z,12.25
2023-04-27T11:47:28.812Z,10.95
2023-04-27T11:53:32.674Z,10.32
2023-04-27T11:59:36.088Z,11.07
2023-04-27T12:05:50.041Z,12.25
2023-04-27T12:11:55.178Z,11.55
2023-04-27T12:17:58.880Z,10.25
2023-04-27T12:24:03.719Z,14.10
2023-04-27T12:30:07.811Z,14.10
2023-04-27T12:36:11.535Z,10.88
2023-04-27T12:42:19.517Z,11.95
2023-04-27T12:48:23.688Z,12.05
2023-04-27T12:54:27.377Z,11.73
2023-04-27T13:00:32.416Z,10.70
2023-04-27T13:06:35.989Z,8.13
2023-04-27T13:12:39.452Z,9.98
2023-04-27T13:18:47.570Z,8.68
2023-04-27T13:24:51.409Z,10.70
2023-04-27T13:30:54.843Z,9.68
2023-04-27T13:36:59.872Z,11.50
2023-04-27T13:43:03.318Z,8.50
2023-04-27T13:49:06.754Z,10.40
2023-04-27T13:55:12.892Z,14.68
2023-04-27T14:01:17.129Z,13.43
2023-04-27T14:07:21.174Z,11.90
2023-04-27T14:13:26.089Z,13.10
2023-04-27T14:19:29.787Z,13.05
2023-04-27T14:25:34.578Z,14.95
2023-04-27T14:31:39.806Z,15.02
2023-04-27T14:37:43.362Z,14.73
2023-04-27T14:43:47.141Z,11.88
2023-04-27T14:49:52.344Z,14.85
2023-04-27T14:55:56.034Z,13.40
2023-04-27T15:01:59.568Z,13.32
2023-04-27T15:08:04.599Z,15.48
2023-04-27T15:14:08.687Z,15.77
2023-04-27T15:20:14.183Z,14.38
2023-04-27T15:26:20.581Z,15.75
2023-04-27T15:32:30.085Z,14.68
2023-04-27T15:38:33.776Z,17.05
2023-04-27T15:44:38.628Z,16.73
2023-04-27T15:50:42.605Z,17.98
2023-04-27T15:56:45.979Z,16.23
2023-04-27T16:02:50.937Z,16.92
2023-04-27T16:08:54.442Z,16.27
2023-04-27T16:14:58.546Z,15.27
2023-04-27T16:21:04.037Z,19.23
2023-04-27T16:27:08.226Z,17.23
2023-04-27T16:33:12.115Z,19.60
2023-04-27T16:39:19.308Z,21.20
2023-04-27T16:45:23.124Z,19.58
2023-04-27T16:51:27.070Z,14.68
2023-04-27T16:57:32.123Z,17.85
2023-04-27T17:03:36.238Z,18.55
2023-04-27T17:09:39.932Z,19.92
2023-04-27T17:15:44.884Z,19.05
2023-04-27T17:21:48.401Z,19.60
2023-04-27T17:27:51.912Z,18.88
2023-04-27T17:33:56.723Z,18.52
2023-04-27T17:40:00.491Z,19.65
2023-04-27T17:46:08.101Z,17.85
2023-04-27T17:52:13.211Z,18.67
2023-04-27T17:58:17.216Z,17.60
2023-04-27T18:04:21.744Z,21.42
2023-04-27T18:10:26.686Z,20.35
2023-04-27T18:16:30.299Z,26.85
2023-04-27T18:22:35.840Z,17.70
2023-04-27T18:28:42.160Z,19.77
2023-04-27T18:34:45.773Z,20.17
2023-04-27T18:40:49.171Z,22.92
2023-04-27T18:46:54.193Z,16.73
2023-04-27T18:52:57.577Z,14.82
2023-04-27T18:59:01.215Z,14.57
2023-04-27T19:05:13.151Z,16.10
2023-04-27T19:11:19.416Z,15.05
2023-04-27T19:17:22.893Z,14.13
2023-04-27T19:23:27.813Z,15.52
2023-04-27T19:29:31.655Z,16.25
2023-04-27T19:35:35.130Z,16.75
2023-04-27T19:41:39.922Z,18.02
2023-04-27T19:47:43.362Z,17.70
2023-04-27T19:53:46.931Z,31.25
2023-04-27T19:59:51.731Z,31.75
2023-04-27T20:05:55.661Z,29.40
2023-04-27T20:11:59.394Z,27.05
2023-04-27T20:18:04.801Z,16.40
2023-04-27T20:24:09.454Z,17.73
2023-04-27T20:30:13.274Z,16.55
2023-04-27T20:36:18.909Z,18.65
2023-04-27T20:42:22.621Z,29.83
2023-04-27T20:48:28.488Z,25.75
2023-04-27T20:54:33.359Z,27.02
2023-04-27T21:00:36.795Z,21.17
2023-04-27T21:06:41.239Z,18.52
2023-04-27T21:12:45.995Z,19.42
2023-04-27T21:18:49.388Z,18.23
2023-04-27T21:24:52.948Z,20.65
2023-04-27T21:30:57.759Z,20.38
2023-04-27T21:37:01.246Z,22.10
2023-04-27T21:43:06.183Z,23.02
2023-04-27T21:49:10.948Z,27.25
2023-04-27T21:55:14.670Z,20.92
2023-04-27T22:01:18.778Z,20.15
2023-04-27T22:07:24.627Z,19.83
2023-04-27T22:13:28.338Z,23.73
2023-04-27T22:19:32.391Z,20.23
2023-04-27T22:25:37.468Z,16.98
2023-04-27T22:31:41.040Z,23.30
2023-04-27T22:37:45.625Z,22.30
2023-04-27T22:43:50.426Z,25.20
2023-04-27T22:49:54.656Z,21.27
2023-04-27T22:55:58.711Z,24.05
2023-04-27T23:02:03.773Z,25.48
2023-04-27T23:08:07.332Z,23.38
2023-04-27T23:14:11.667Z,24.75
2023-04-27T23:20:27.168Z,25.85
2023-04-27T23:26:31.969Z,22.90
2023-04-27T23:32:36.792Z,23.17
2023-04-27T23:38:41.814Z,22.77
2023-04-27T23:44:45.224Z,26.48
2023-04-27T23:50:48.617Z,22.63
2023-04-27T23:56:53.448Z,24.05
